Time;durP1;ratioP1;P1;durP2;ratioP2;P2;SDS_P1;SDS_P2;PMS_P1;PMS_P2;Temp;Humidity;BMP_temperature;BMP_pressure;BME280_temperature;BME280_humidity;BME280_pressure;Samples;Min_cycle;Max_cycle;Signal;HPM_P1;HPM_P2
2020/12/15 00:00:17;;;;;;;;;;;20.20;38.70;;;;;;491594;240;1127;-54
2020/12/15 00:02:18;;;;;;;;;;;20.20;38.70;;;;;;491571;240;1162;-54
2020/12/15 00:04:19;;;;;;;;;;;20.20;38.80;;;;;;491629;238;1344;-54
2020/12/15 00:06:20;;;;;;;;;;;20.20;38.90;;;;;;491560;240;1149;-53
2020/12/15 00:08:22;;;;;;;;;;;20.10;38.90;;;;;;491671;240;1021;-54
2020/12/15 00:10:23;;;;;;;;;;;20.10;38.90;;;;;;491627;240;1074;-54
2020/12/15 00:12:24;;;;;;;;;;;20.10;39.00;;;;;;491603;240;1209;-54
2020/12/15 00:14:25;;;;;;;;;;;20.10;39.00;;;;;;491658;240;1050;-54
2020/12/15 00:16:27;;;;;;;;;;;20.10;39.00;;;;;;491807;240;2183;-53
2020/12/15 00:18:28;;;;;;;;;;;20.10;38.90;;;;;;491663;240;1140;-54
2020/12/15 00:20:30;;;;;;;;;;;20.20;38.90;;;;;;491645;240;1179;-54
2020/12/15 00:22:31;;;;;;;;;;;20.10;38.70;;;;;;491689;240;1208;-54
2020/12/15 00:24:32;;;;;;;;;;;20.20;38.80;;;;;;491618;240;1019;-54
2020/12/15 00:26:33;;;;;;;;;;;20.20;38.80;;;;;;491686;240;1292;-54
2020/12/15 00:28:35;;;;;;;;;;;20.20;38.70;;;;;;491667;240;1446;-54
2020/12/15 00:30:36;;;;;;;;;;;20.20;38.80;;;;;;491612;240;1352;-54
2020/12/15 00:32:37;;;;;;;;;;;20.20;38.80;;;;;;491645;240;1053;-54
2020/12/15 00:34:38;;;;;;;;;;;20.20;38.80;;;;;;491627;240;1101;-54
2020/12/15 00:36:40;;;;;;;;;;;20.20;38.70;;;;;;491581;240;2200;-54
2020/12/15 00:38:41;;;;;;;;;;;20.20;38.70;;;;;;491606;240;1257;-53
2020/12/15 00:40:43;;;;;;;;;;;20.20;38.70;;;;;;491544;240;1152;-54
2020/12/15 00:42:44;;;;;;;;;;;20.30;38.70;;;;;;491533;240;1323;-54
2020/12/15 00:44:45;;;;;;;;;;;20.30;38.60;;;;;;491702;240;1202;-54
2020/12/15 00:46:46;;;;;;;;;;;20.30;38.60;;;;;;491577;240;1135;-54
2020/12/15 00:48:48;;;;;;;;;;;20.30;38.60;;;;;;491618;240;1153;-54
2020/12/15 00:50:49;;;;;;;;;;;20.30;38.50;;;;;;491612;240;1171;-54
2020/12/15 00:52:50;;;;;;;;;;;20.30;38.50;;;;;;491575;240;1299;-53
2020/12/15 00:54:52;;;;;;;;;;;20.40;38.40;;;;;;491612;240;1265;-54
2020/12/15 00:56:53;;;;;;;;;;;20.40;38.40;;;;;;491604;240;2195;-54
2020/12/15 00:58:54;;;;;;;;;;;20.40;38.40;;;;;;491633;240;1044;-54
2020/12/15 01:00:55;;;;;;;;;;;20.40;37.20;;;;;;491607;240;1224;-54
2020/12/15 01:02:57;;;;;;;;;;;20.30;38.50;;;;;;491772;240;1075;-54
2020/12/15 01:04:58;;;;;;;;;;;20.30;38.70;;;;;;491687;240;1206;-54
2020/12/15 01:06:59;;;;;;;;;;;20.20;38.80;;;;;;491662;240;1076;-53
2020/12/15 01:09:00;;;;;;;;;;;20.10;38.90;;;;;;491649;240;1071;-54
2020/12/15 01:11:02;;;;;;;;;;;20.10;39.10;;;;;;491628;240;975;-54
2020/12/15 01:13:03;;;;;;;;;;;20.00;39.20;;;;;;491589;240;943;-54
2020/12/15 01:15:04;;;;;;;;;;;19.90;39.30;;;;;;491727;240;1317;-54
2020/12/15 01:17:06;;;;;;;;;;;19.90;39.40;;;;;;491590;240;2204;-54
2020/12/15 01:19:08;;;;;;;;;;;19.90;39.50;;;;;;491580;240;1042;-53
2020/12/15 01:21:10;;;;;;;;;;;19.80;39.50;;;;;;491757;240;1181;-54
2020/12/15 01:23:11;;;;;;;;;;;19.80;39.60;;;;;;491778;240;1063;-54
2020/12/15 01:25:12;;;;;;;;;;;19.70;39.70;;;;;;491608;240;1075;-54
2020/12/15 01:27:13;;;;;;;;;;;19.70;39.80;;;;;;491779;240;1098;-54
2020/12/15 01:29:15;;;;;;;;;;;19.60;39.90;;;;;;491619;240;1096;-54
2020/12/15 01:31:16;;;;;;;;;;;19.60;38.70;;;;;;491605;240;1084;-54
2020/12/15 01:33:17;;;;;;;;;;;19.60;40.10;;;;;;491656;240;1138;-54
2020/12/15 01:35:19;;;;;;;;;;;19.50;40.10;;;;;;491607;240;1182;-53
2020/12/15 01:37:20;;;;;;;;;;;19.40;40.20;;;;;;491533;240;2192;-53
2020/12/15 01:39:21;;;;;;;;;;;19.40;40.20;;;;;;491599;240;1091;-54
2020/12/15 01:41:23;;;;;;;;;;;19.40;40.30;;;;;;491741;240;1061;-53
2020/12/15 01:43:24;;;;;;;;;;;19.40;40.40;;;;;;491576;240;1056;-53
2020/12/15 01:45:25;;;;;;;;;;;19.30;40.50;;;;;;491699;240;1004;-54
2020/12/15 01:47:26;;;;;;;;;;;19.30;40.50;;;;;;491606;240;1035;-54
2020/12/15 01:49:28;;;;;;;;;;;19.30;40.60;;;;;;491655;240;1054;-53
2020/12/15 01:51:29;;;;;;;;;;;19.20;40.60;;;;;;491702;240;1158;-54
2020/12/15 01:53:30;;;;;;;;;;;19.20;40.70;;;;;;491680;240;1084;-54
2020/12/15 01:55:31;;;;;;;;;;;19.20;40.80;;;;;;491559;240;1066;-54
2020/12/15 01:57:33;;;;;;;;;;;19.10;40.80;;;;;;491682;240;1014;-54
2020/12/15 01:59:34;;;;;;;;;;;19.10;40.90;;;;;;491673;240;962;-54
2020/12/15 02:01:35;;;;;;;;;;;19.10;40.90;;;;;;491651;240;1126;-54
2020/12/15 02:03:37;;;;;;;;;;;19.10;40.80;;;;;;491992;240;1044;-54
2020/12/15 02:05:38;;;;;;;;;;;19.20;40.80;;;;;;491634;240;1171;-53
2020/12/15 02:07:39;;;;;;;;;;;19.10;40.80;;;;;;491652;240;973;-54
2020/12/15 02:09:41;;;;;;;;;;;19.10;40.80;;;;;;491735;240;1127;-54
2020/12/15 02:11:42;;;;;;;;;;;19.10;40.90;;;;;;491650;240;997;-54
2020/12/15 02:13:43;;;;;;;;;;;19.00;40.90;;;;;;491908;240;1034;-54
2020/12/15 02:15:45;;;;;;;;;;;19.00;40.90;;;;;;491655;240;2192;-54
2020/12/15 02:17:46;;;;;;;;;;;19.00;41.00;;;;;;491666;240;1253;-54
2020/12/15 02:19:47;;;;;;;;;;;19.00;41.00;;;;;;491637;240;986;-53
2020/12/15 02:21:48;;;;;;;;;;;19.00;41.10;;;;;;491784;240;1224;-54
2020/12/15 02:23:50;;;;;;;;;;;18.90;41.10;;;;;;491677;240;1113;-53
2020/12/15 02:25:51;;;;;;;;;;;18.90;41.10;;;;;;491557;240;962;-53
2020/12/15 02:27:52;;;;;;;;;;;18.90;41.10;;;;;;491724;240;974;-53
2020/12/15 02:29:54;;;;;;;;;;;18.90;41.20;;;;;;491753;240;1023;-54
2020/12/15 02:31:55;;;;;;;;;;;18.90;41.20;;;;;;491564;240;1113;-54
2020/12/15 02:33:56;;;;;;;;;;;18.90;41.20;;;;;;491669;240;1047;-54
2020/12/15 02:35:57;;;;;;;;;;;18.90;41.30;;;;;;491513;240;2176;-53
2020/12/15 02:37:59;;;;;;;;;;;18.80;41.20;;;;;;491606;240;1105;-53
2020/12/15 02:40:00;;;;;;;;;;;18.80;41.30;;;;;;491624;240;1054;-54
2020/12/15 02:42:01;;;;;;;;;;;18.80;41.30;;;;;;491610;240;1153;-53
2020/12/15 02:44:02;;;;;;;;;;;18.80;41.30;;;;;;491710;240;1039;-54
2020/12/15 02:46:04;;;;;;;;;;;18.80;41.40;;;;;;491576;240;1454;-54
2020/12/15 02:48:05;;;;;;;;;;;18.80;41.40;;;;;;491643;240;1085;-54
2020/12/15 02:50:06;;;;;;;;;;;18.80;41.40;;;;;;491651;240;1196;-54
2020/12/15 02:52:08;;;;;;;;;;;18.70;41.40;;;;;;491760;240;1217;-53
2020/12/15 02:54:09;;;;;;;;;;;18.70;41.40;;;;;;491625;240;1187;-53
2020/12/15 02:56:10;;;;;;;;;;;18.70;41.50;;;;;;491715;240;2179;-54
2020/12/15 02:58:11;;;;;;;;;;;18.70;41.50;;;;;;491824;240;1062;-54
2020/12/15 03:00:13;;;;;;;;;;;18.70;41.50;;;;;;491693;240;1163;-53
2020/12/15 03:02:14;;;;;;;;;;;18.70;41.50;;;;;;491695;240;1300;-53
2020/12/15 03:04:15;;;;;;;;;;;18.60;41.50;;;;;;491665;240;1170;-53
2020/12/15 03:06:16;;;;;;;;;;;18.60;41.60;;;;;;491625;240;1277;-54
2020/12/15 03:08:18;;;;;;;;;;;18.60;41.60;;;;;;491490;240;1166;-53
2020/12/15 03:10:19;;;;;;;;;;;18.60;41.60;;;;;;491624;240;1101;-53
2020/12/15 03:12:20;;;;;;;;;;;18.60;41.60;;;;;;491569;240;1272;-54
2020/12/15 03:14:22;;;;;;;;;;;18.60;41.70;;;;;;491619;240;1168;-54
2020/12/15 03:16:23;;;;;;;;;;;18.60;41.70;;;;;;491690;240;2184;-54
2020/12/15 03:18:24;;;;;;;;;;;18.60;41.70;;;;;;491672;240;1388;-53
2020/12/15 03:20:25;;;;;;;;;;;18.60;41.70;;;;;;491863;240;1197;-54
2020/12/15 03:22:27;;;;;;;;;;;18.60;41.70;;;;;;491613;240;1266;-54
2020/12/15 03:24:28;;;;;;;;;;;18.50;41.70;;;;;;491794;240;1139;-54
2020/12/15 03:26:29;;;;;;;;;;;18.50;41.70;;;;;;491831;240;1057;-53
2020/12/15 03:28:31;;;;;;;;;;;18.50;41.70;;;;;;491893;240;1179;-54
2020/12/15 03:30:32;;;;;;;;;;;18.50;41.70;;;;;;491635;240;952;-53
2020/12/15 03:32:33;;;;;;;;;;;18.50;41.70;;;;;;491726;240;1089;-54
2020/12/15 03:34:34;;;;;;;;;;;18.50;41.70;;;;;;492072;240;1059;-54
2020/12/15 03:36:36;;;;;;;;;;;18.50;41.80;;;;;;491609;240;2204;-53
2020/12/15 03:38:37;;;;;;;;;;;18.50;41.80;;;;;;491563;240;1196;-53
2020/12/15 03:40:38;;;;;;;;;;;18.50;41.80;;;;;;491564;240;1101;-54
2020/12/15 03:42:39;;;;;;;;;;;18.50;41.80;;;;;;491564;240;1214;-54
2020/12/15 03:44:41;;;;;;;;;;;18.50;41.80;;;;;;491752;240;974;-54
2020/12/15 03:46:42;;;;;;;;;;;18.40;41.80;;;;;;491594;240;1035;-53
2020/12/15 03:48:43;;;;;;;;;;;18.40;41.80;;;;;;491566;240;1127;-53
2020/12/15 03:50:45;;;;;;;;;;;18.40;41.80;;;;;;491660;240;1154;-54
2020/12/15 03:52:46;;;;;;;;;;;18.40;41.80;;;;;;491718;240;1269;-53
2020/12/15 03:54:47;;;;;;;;;;;18.40;41.80;;;;;;491896;240;1048;-54
2020/12/15 03:56:48;;;;;;;;;;;18.40;41.90;;;;;;491622;240;2172;-54
2020/12/15 03:58:50;;;;;;;;;;;18.40;41.90;;;;;;491644;240;1220;-53
2020/12/15 04:00:51;;;;;;;;;;;18.40;41.90;;;;;;491601;240;1202;-54
2020/12/15 04:02:52;;;;;;;;;;;18.40;41.80;;;;;;491739;240;1033;-53
2020/12/15 04:04:53;;;;;;;;;;;18.50;41.80;;;;;;491654;240;1015;-53
2020/12/15 04:06:55;;;;;;;;;;;18.50;41.70;;;;;;491671;240;1148;-53
2020/12/15 04:08:56;;;;;;;;;;;18.50;41.70;;;;;;491757;240;1032;-53
2020/12/15 04:10:57;;;;;;;;;;;18.50;41.70;;;;;;491721;240;1031;-53
2020/12/15 04:12:59;;;;;;;;;;;18.50;41.70;;;;;;491676;240;973;-54
2020/12/15 04:15:00;;;;;;;;;;;18.50;41.70;;;;;;491625;240;1039;-54
2020/12/15 04:17:01;;;;;;;;;;;18.40;41.70;;;;;;491575;240;2196;-54
2020/12/15 04:19:02;;;;;;;;;;;18.40;41.70;;;;;;491624;240;1059;-53
2020/12/15 04:21:04;;;;;;;;;;;18.40;41.80;;;;;;491780;240;1221;-53
2020/12/15 04:23:05;;;;;;;;;;;18.40;41.80;;;;;;491607;240;1117;-53
2020/12/15 04:25:06;;;;;;;;;;;18.40;41.80;;;;;;491610;240;1095;-54
2020/12/15 04:27:08;;;;;;;;;;;18.40;41.80;;;;;;491711;240;1073;-53
2020/12/15 04:29:09;;;;;;;;;;;18.40;41.80;;;;;;491894;240;1059;-53
2020/12/15 04:31:10;;;;;;;;;;;18.40;41.80;;;;;;491817;240;1039;-54
2020/12/15 04:33:11;;;;;;;;;;;18.40;41.90;;;;;;491794;240;1046;-53
2020/12/15 04:35:13;;;;;;;;;;;18.30;41.90;;;;;;491608;240;1333;-54
2020/12/15 04:37:14;;;;;;;;;;;18.30;41.80;;;;;;491602;240;2184;-53
2020/12/15 04:39:15;;;;;;;;;;;18.40;41.90;;;;;;491641;240;1147;-53
2020/12/15 04:41:17;;;;;;;;;;;18.40;41.90;;;;;;491614;240;966;-54
2020/12/15 04:43:18;;;;;;;;;;;18.30;41.90;;;;;;491728;240;1009;-54
2020/12/15 04:45:19;;;;;;;;;;;18.30;41.90;;;;;;491627;240;1046;-53
2020/12/15 04:47:21;;;;;;;;;;;18.30;41.90;;;;;;491663;240;1085;-54
2020/12/15 04:49:22;;;;;;;;;;;18.30;41.90;;;;;;491623;240;1079;-54
2020/12/15 04:51:23;;;;;;;;;;;18.30;42.00;;;;;;491608;240;1064;-54
2020/12/15 04:53:25;;;;;;;;;;;18.30;42.00;;;;;;491636;240;1187;-54
2020/12/15 04:55:26;;;;;;;;;;;18.30;42.00;;;;;;491588;242;1529;-54
2020/12/15 04:57:27;;;;;;;;;;;18.30;42.00;;;;;;491589;240;2141;-53
2020/12/15 04:59:28;;;;;;;;;;;18.30;42.00;;;;;;491782;240;1113;-53
2020/12/15 05:01:29;;;;;;;;;;;18.30;42.00;;;;;;491605;240;1228;-53
2020/12/15 05:03:31;;;;;;;;;;;18.30;42.00;;;;;;491690;240;997;-53
2020/12/15 05:05:32;;;;;;;;;;;18.30;42.00;;;;;;491762;240;1070;-53
2020/12/15 05:07:33;;;;;;;;;;;18.30;42.00;;;;;;491620;240;1033;-53
2020/12/15 05:09:34;;;;;;;;;;;18.20;42.00;;;;;;491654;240;1169;-54
2020/12/15 05:11:36;;;;;;;;;;;18.20;42.00;;;;;;491630;240;1102;-54
2020/12/15 05:13:37;;;;;;;;;;;18.30;42.10;;;;;;491632;240;1086;-54
2020/12/15 05:15:38;;;;;;;;;;;18.20;42.00;;;;;;491700;240;1075;-53
2020/12/15 05:17:40;;;;;;;;;;;18.20;42.00;;;;;;491524;240;2188;-54
2020/12/15 05:19:41;;;;;;;;;;;18.20;42.00;;;;;;491576;240;1147;-53
2020/12/15 05:21:42;;;;;;;;;;;18.20;42.00;;;;;;491519;240;1086;-53
2020/12/15 05:23:43;;;;;;;;;;;18.20;42.00;;;;;;491630;240;1079;-54
2020/12/15 05:25:45;;;;;;;;;;;18.20;42.00;;;;;;491403;240;1076;-53
2020/12/15 05:27:46;;;;;;;;;;;18.20;42.00;;;;;;491424;240;1026;-54
2020/12/15 05:29:47;;;;;;;;;;;18.20;42.10;;;;;;491449;240;1016;-54
2020/12/15 05:31:48;;;;;;;;;;;18.20;42.10;;;;;;491457;240;1167;-54
2020/12/15 05:33:50;;;;;;;;;;;18.20;42.10;;;;;;491485;240;1041;-54
2020/12/15 05:35:51;;;;;;;;;;;18.20;42.10;;;;;;491617;240;976;-54
2020/12/15 05:37:52;;;;;;;;;;;18.20;42.10;;;;;;491473;240;2180;-53
2020/12/15 05:39:54;;;;;;;;;;;18.20;42.10;;;;;;491478;240;1164;-54
2020/12/15 05:41:55;;;;;;;;;;;18.20;42.10;;;;;;491567;240;1108;-53
2020/12/15 05:43:56;;;;;;;;;;;18.20;42.10;;;;;;491458;240;1041;-53
2020/12/15 05:45:57;;;;;;;;;;;18.20;42.10;;;;;;491325;240;1112;-54
2020/12/15 05:47:59;;;;;;;;;;;18.20;42.10;;;;;;491254;240;1157;-54
2020/12/15 05:50:00;;;;;;;;;;;18.20;42.10;;;;;;491549;240;1052;-53
2020/12/15 05:52:01;;;;;;;;;;;18.20;42.10;;;;;;491433;240;1092;-53
2020/12/15 05:54:02;;;;;;;;;;;18.20;42.10;;;;;;491431;240;1113;-54
2020/12/15 05:56:04;;;;;;;;;;;18.20;42.10;;;;;;491456;240;1032;-53
2020/12/15 05:58:05;;;;;;;;;;;18.20;42.10;;;;;;491322;240;2144;-53
2020/12/15 06:00:06;;;;;;;;;;;18.20;42.10;;;;;;491464;240;1069;-53
2020/12/15 06:02:08;;;;;;;;;;;18.20;42.10;;;;;;491471;240;1053;-54
2020/12/15 06:04:09;;;;;;;;;;;18.10;42.10;;;;;;491390;240;1060;-53
2020/12/15 06:06:10;;;;;;;;;;;18.10;42.10;;;;;;491386;240;998;-53
2020/12/15 06:08:11;;;;;;;;;;;18.10;42.10;;;;;;491428;240;1108;-54
2020/12/15 06:10:13;;;;;;;;;;;18.10;42.10;;;;;;491324;240;1153;-53
2020/12/15 06:12:14;;;;;;;;;;;18.10;42.20;;;;;;491408;240;1192;-53
2020/12/15 06:14:15;;;;;;;;;;;18.10;42.20;;;;;;491524;240;1053;-54
2020/12/15 06:16:17;;;;;;;;;;;18.10;42.10;;;;;;491331;240;1083;-54
2020/12/15 06:18:18;;;;;;;;;;;18.10;42.10;;;;;;491397;240;2170;-53
2020/12/15 06:20:19;;;;;;;;;;;18.10;42.10;;;;;;491386;240;1036;-54
2020/12/15 06:22:21;;;;;;;;;;;18.10;42.10;;;;;;491272;240;1221;-54
2020/12/15 06:24:22;;;;;;;;;;;18.10;42.10;;;;;;491196;240;1158;-54
2020/12/15 06:26:23;;;;;;;;;;;18.10;42.20;;;;;;491286;240;1129;-53
2020/12/15 06:28:24;;;;;;;;;;;18.10;42.10;;;;;;491308;240;1255;-54
2020/12/15 06:30:26;;;;;;;;;;;18.10;42.20;;;;;;491313;240;1050;-54
2020/12/15 06:32:27;;;;;;;;;;;18.10;42.10;;;;;;491351;240;1124;-54
2020/12/15 06:34:28;;;;;;;;;;;18.10;42.10;;;;;;491210;240;1054;-53
2020/12/15 06:36:30;;;;;;;;;;;18.10;42.00;;;;;;491116;240;1184;-54
2020/12/15 06:38:31;;;;;;;;;;;18.20;42.00;;;;;;491179;240;2148;-54
2020/12/15 06:40:32;;;;;;;;;;;18.20;40.70;;;;;;491250;240;1140;-54
2020/12/15 06:42:33;;;;;;;;;;;18.20;40.60;;;;;;491180;240;1165;-53
2020/12/15 06:44:35;;;;;;;;;;;18.20;41.90;;;;;;491321;240;1067;-54
2020/12/15 06:46:36;;;;;;;;;;;18.30;41.90;;;;;;491341;240;1075;-54
2020/12/15 06:48:37;;;;;;;;;;;18.30;41.90;;;;;;491257;240;1047;-54
2020/12/15 06:50:39;;;;;;;;;;;18.30;41.80;;;;;;491181;240;1090;-53
2020/12/15 06:52:40;;;;;;;;;;;18.30;41.80;;;;;;490975;240;1217;-54
2020/12/15 06:54:41;;;;;;;;;;;18.30;40.40;;;;;;490924;240;1165;-53
2020/12/15 06:56:42;;;;;;;;;;;18.30;41.70;;;;;;491146;238;1212;-54
2020/12/15 06:58:44;;;;;;;;;;;18.40;41.70;;;;;;491202;240;2140;-54
2020/12/15 07:00:45;;;;;;;;;;;18.40;41.70;;;;;;491001;240;1256;-53
2020/12/15 07:02:47;;;;;;;;;;;18.40;41.70;;;;;;491192;240;1226;-54
2020/12/15 07:04:48;;;;;;;;;;;18.40;41.60;;;;;;491294;240;1287;-53
2020/12/15 07:06:49;;;;;;;;;;;18.40;41.60;;;;;;491034;240;1160;-54
2020/12/15 07:11:44;;;;;;;;;;;18.50;41.50;;;;;;490788;242;2265;-53
2020/12/15 07:13:45;;;;;;;;;;;18.50;41.50;;;;;;491067;240;1154;-54
2020/12/15 07:15:46;;;;;;;;;;;18.50;41.50;;;;;;491080;240;1198;-54
2020/12/15 07:17:47;;;;;;;;;;;18.50;41.50;;;;;;490945;240;2188;-53
2020/12/15 07:19:49;;;;;;;;;;;18.50;41.40;;;;;;491022;240;1102;-54
2020/12/15 07:21:50;;;;;;;;;;;18.60;41.50;;;;;;491130;240;1104;-54
2020/12/15 07:23:51;;;;;;;;;;;18.60;41.40;;;;;;491156;240;1193;-54
2020/12/15 07:25:52;;;;;;;;;;;18.60;41.40;;;;;;490689;240;1121;-54
2020/12/15 07:27:54;;;;;;;;;;;18.60;41.30;;;;;;490972;240;1021;-54
2020/12/15 07:29:56;;;;;;;;;;;18.60;40.00;;;;;;490866;240;1316;-53
2020/12/15 07:31:57;;;;;;;;;;;18.70;41.30;;;;;;490964;240;1174;-53
2020/12/15 07:33:58;;;;;;;;;;;18.60;39.90;;;;;;490784;240;1071;-54
2020/12/15 07:35:59;;;;;;;;;;;18.70;41.30;;;;;;490995;240;1138;-54
2020/12/15 07:38:00;;;;;;;;;;;18.70;41.20;;;;;;490802;240;2144;-53
2020/12/15 07:40:02;;;;;;;;;;;18.70;41.20;;;;;;490858;240;1067;-54
2020/12/15 07:42:04;;;;;;;;;;;18.80;41.20;;;;;;490839;240;1145;-53
2020/12/15 07:44:05;;;;;;;;;;;18.80;41.20;;;;;;490822;240;1054;-53
2020/12/15 07:46:07;;;;;;;;;;;18.80;41.20;;;;;;490955;240;1126;-53
2020/12/15 07:48:08;;;;;;;;;;;18.80;41.10;;;;;;491045;240;1120;-54
2020/12/15 07:50:09;;;;;;;;;;;18.80;41.10;;;;;;491009;240;1047;-54
2020/12/15 07:52:10;;;;;;;;;;;18.80;39.80;;;;;;490575;240;1288;-54
2020/12/15 07:54:13;;;;;;;;;;;18.80;41.10;;;;;;490883;240;1045;-53
2020/12/15 07:56:13;;;;;;;;;;;18.90;39.80;;;;;;490606;241;1440;-53
2020/12/15 07:58:14;;;;;;;;;;;18.80;41.00;;;;;;490802;240;2196;-54
2020/12/15 08:00:15;;;;;;;;;;;18.90;41.00;;;;;;490686;240;1184;-53
2020/12/15 08:02:17;;;;;;;;;;;18.90;41.00;;;;;;490775;240;1087;-54
2020/12/15 08:04:19;;;;;;;;;;;18.90;41.00;;;;;;490788;240;1024;-53
2020/12/15 08:06:19;;;;;;;;;;;18.90;41.00;;;;;;490661;240;1914;-53
2020/12/15 08:08:21;;;;;;;;;;;18.90;41.00;;;;;;490657;240;1240;-54
2020/12/15 08:10:23;;;;;;;;;;;18.90;40.90;;;;;;491031;240;1036;-53
2020/12/15 08:12:24;;;;;;;;;;;19.00;41.00;;;;;;490840;240;1225;-53
2020/12/15 08:14:26;;;;;;;;;;;19.00;40.90;;;;;;490862;240;1066;-53
2020/12/15 08:16:27;;;;;;;;;;;19.00;40.90;;;;;;490962;240;1169;-53
2020/12/15 08:18:28;;;;;;;;;;;19.00;40.90;;;;;;490941;240;2196;-54
2020/12/15 08:20:29;;;;;;;;;;;19.00;40.90;;;;;;490712;240;1222;-54
2020/12/15 08:22:31;;;;;;;;;;;19.00;40.80;;;;;;490684;240;1201;-54
2020/12/15 08:24:32;;;;;;;;;;;19.00;40.80;;;;;;490699;240;1087;-53
2020/12/15 08:26:33;;;;;;;;;;;19.00;40.80;;;;;;490772;240;1240;-54
2020/12/15 08:28:34;;;;;;;;;;;19.00;39.50;;;;;;490879;240;1201;-54
2020/12/15 08:30:36;;;;;;;;;;;19.10;40.80;;;;;;490984;240;1146;-54
2020/12/15 08:32:37;;;;;;;;;;;19.10;40.80;;;;;;490894;240;1295;-54
2020/12/15 08:34:38;;;;;;;;;;;19.10;40.80;;;;;;490885;240;1283;-54
2020/12/15 08:36:39;;;;;;;;;;;19.10;40.80;;;;;;490920;240;1204;-53
2020/12/15 08:38:41;;;;;;;;;;;19.10;40.70;;;;;;491247;240;2177;-53
2020/12/15 08:40:42;;;;;;;;;;;19.10;40.70;;;;;;490820;240;1062;-53
2020/12/15 08:42:44;;;;;;;;;;;19.20;40.70;;;;;;491041;240;1321;-53
2020/12/15 08:44:45;;;;;;;;;;;19.10;40.70;;;;;;491106;240;1108;-54
2020/12/15 08:46:46;;;;;;;;;;;19.20;40.70;;;;;;490836;240;1195;-54
2020/12/15 08:48:48;;;;;;;;;;;19.10;40.70;;;;;;490941;240;1203;-53
2020/12/15 08:50:49;;;;;;;;;;;19.20;40.70;;;;;;490883;240;1245;-53
2020/12/15 08:52:50;;;;;;;;;;;19.20;39.40;;;;;;490733;240;1193;-53
2020/12/15 08:54:51;;;;;;;;;;;19.20;40.70;;;;;;490804;240;1059;-53
2020/12/15 08:56:53;;;;;;;;;;;19.20;40.70;;;;;;490799;240;1262;-54
2020/12/15 08:58:54;;;;;;;;;;;19.20;40.60;;;;;;490829;240;2196;-54
2020/12/15 09:00:55;;;;;;;;;;;19.20;40.60;;;;;;490823;240;1153;-54
2020/12/15 09:02:56;;;;;;;;;;;19.30;39.40;;;;;;490808;240;1235;-54
2020/12/15 09:04:58;;;;;;;;;;;19.30;40.60;;;;;;490910;240;1174;-53
2020/12/15 09:06:59;;;;;;;;;;;19.30;40.60;;;;;;490782;240;1230;-53
2020/12/15 09:09:01;;;;;;;;;;;19.30;40.60;;;;;;490857;240;1200;-53
2020/12/15 09:11:02;;;;;;;;;;;19.30;40.60;;;;;;490783;240;1161;-53
2020/12/15 09:13:04;;;;;;;;;;;19.30;40.60;;;;;;490666;240;1386;-53
2020/12/15 09:15:05;;;;;;;;;;;19.30;40.60;;;;;;490896;240;1054;-54
2020/12/15 09:17:06;;;;;;;;;;;19.30;40.50;;;;;;490942;240;1189;-53
2020/12/15 09:19:08;;;;;;;;;;;19.30;40.50;;;;;;490867;240;2188;-54
2020/12/15 09:21:09;;;;;;;;;;;19.30;40.50;;;;;;490787;240;1037;-54
2020/12/15 09:23:10;;;;;;;;;;;19.30;40.50;;;;;;490502;240;1053;-53
2020/12/15 09:25:12;;;;;;;;;;;19.30;40.50;;;;;;490641;240;1089;-54
2020/12/15 09:27:13;;;;;;;;;;;19.30;40.50;;;;;;490801;240;1191;-54
2020/12/15 09:29:14;;;;;;;;;;;19.30;40.40;;;;;;490791;240;1254;-53
2020/12/15 09:31:16;;;;;;;;;;;19.40;39.20;;;;;;490715;240;1211;-54
2020/12/15 09:33:17;;;;;;;;;;;19.40;39.20;;;;;;490693;240;1120;-54
2020/12/15 09:35:18;;;;;;;;;;;19.40;40.50;;;;;;490691;240;1065;-54
2020/12/15 09:37:19;;;;;;;;;;;19.40;40.40;;;;;;490685;240;1041;-54
2020/12/15 09:39:21;;;;;;;;;;;19.40;40.40;;;;;;490899;242;2129;-53
2020/12/15 09:41:22;;;;;;;;;;;19.40;39.10;;;;;;490821;240;1071;-53
2020/12/15 09:43:23;;;;;;;;;;;19.40;40.40;;;;;;490873;240;1061;-54
2020/12/15 09:45:25;;;;;;;;;;;19.40;40.40;;;;;;490780;240;1060;-54
2020/12/15 09:47:26;;;;;;;;;;;19.40;40.40;;;;;;490645;240;1294;-54
2020/12/15 09:49:28;;;;;;;;;;;19.40;40.40;;;;;;490665;240;1085;-53
2020/12/15 09:51:30;;;;;;;;;;;19.40;40.40;;;;;;490752;240;1190;-53
2020/12/15 09:53:32;;;;;;;;;;;19.40;40.40;;;;;;490777;240;1080;-53
2020/12/15 09:55:33;;;;;;;;;;;19.50;40.40;;;;;;490836;240;1017;-54
2020/12/15 09:57:34;;;;;;;;;;;19.50;40.40;;;;;;490778;240;1045;-53
2020/12/15 09:59:36;;;;;;;;;;;19.50;40.40;;;;;;490631;240;2137;-54
2020/12/15 10:01:37;;;;;;;;;;;19.50;40.40;;;;;;490878;240;1187;-54
2020/12/15 10:03:39;;;;;;;;;;;19.50;40.40;;;;;;490835;240;1064;-54
2020/12/15 10:05:40;;;;;;;;;;;19.50;40.40;;;;;;490935;240;1305;-54
2020/12/15 10:07:41;;;;;;;;;;;19.50;40.40;;;;;;490912;240;1214;-54
2020/12/15 10:09:42;;;;;;;;;;;19.50;40.30;;;;;;490807;240;1367;-53
2020/12/15 10:11:44;;;;;;;;;;;19.60;40.50;;;;;;491139;240;1156;-54
2020/12/15 10:13:45;;;;;;;;;;;19.60;40.30;;;;;;490874;240;1265;-53
2020/12/15 10:15:46;;;;;;;;;;;19.70;40.10;;;;;;491011;240;1348;-53
2020/12/15 10:17:48;;;;;;;;;;;19.60;40.00;;;;;;490877;240;1224;-54
2020/12/15 10:19:49;;;;;;;;;;;19.60;40.10;;;;;;490977;240;2188;-54
2020/12/15 10:21:50;;;;;;;;;;;19.60;40.20;;;;;;490879;240;1177;-53
2020/12/15 10:23:53;;;;;;;;;;;19.60;40.30;;;;;;490749;240;1193;-53
2020/12/15 10:25:53;;;;;;;;;;;19.50;40.30;;;;;;490774;241;2024;-54
2020/12/15 10:27:54;;;;;;;;;;;19.50;40.40;;;;;;490689;240;1291;-53
2020/12/15 10:29:55;;;;;;;;;;;19.40;40.40;;;;;;490828;240;1275;-54
2020/12/15 10:31:56;;;;;;;;;;;19.40;40.50;;;;;;490650;240;1191;-53
2020/12/15 10:33:58;;;;;;;;;;;19.40;39.30;;;;;;490610;241;1290;-53
2020/12/15 10:36:00;;;;;;;;;;;19.30;40.60;;;;;;490701;240;1226;-53
2020/12/15 10:38:00;;;;;;;;;;;19.30;39.40;;;;;;490799;241;1422;-54
2020/12/15 10:40:02;;;;;;;;;;;19.30;40.70;;;;;;490955;240;2128;-54
2020/12/15 10:42:03;;;;;;;;;;;19.30;40.80;;;;;;490943;240;1308;-54
2020/12/15 10:44:04;;;;;;;;;;;19.20;40.80;;;;;;490818;240;1138;-53
2020/12/15 10:46:05;;;;;;;;;;;19.20;40.90;;;;;;490958;240;1103;-54
2020/12/15 10:48:07;;;;;;;;;;;19.20;41.00;;;;;;490758;240;1210;-54
2020/12/15 10:50:09;;;;;;;;;;;19.20;41.00;;;;;;490736;240;1160;-53
2020/12/15 10:52:09;;;;;;;;;;;19.10;41.10;;;;;;490473;240;2311;-52
2020/12/15 10:54:11;;;;;;;;;;;19.10;41.10;;;;;;490474;240;1180;-53
2020/12/15 10:56:12;;;;;;;;;;;19.10;41.10;;;;;;490569;240;1344;-53
2020/12/15 10:58:13;;;;;;;;;;;19.00;41.20;;;;;;490666;240;1163;-53
2020/12/15 11:00:14;;;;;;;;;;;19.00;41.20;;;;;;490679;240;2187;-53
2020/12/15 11:02:17;;;;;;;;;;;19.00;41.30;;;;;;490562;240;1185;-53
2020/12/15 11:04:17;;;;;;;;;;;19.00;41.30;;;;;;490685;241;2110;-53
2020/12/15 11:06:20;;;;;;;;;;;18.90;41.50;;;;;;490752;240;1106;-53
2020/12/15 11:08:20;;;;;;;;;;;18.90;41.40;;;;;;490719;242;1934;-53
2020/12/15 11:10:21;;;;;;;;;;;18.90;41.50;;;;;;490839;240;1095;-53
2020/12/15 11:12:23;;;;;;;;;;;18.80;41.50;;;;;;490819;240;1053;-53
2020/12/15 11:14:24;;;;;;;;;;;18.80;41.60;;;;;;490770;240;1275;-53
2020/12/15 11:16:25;;;;;;;;;;;18.80;41.60;;;;;;490832;240;1114;-53
2020/12/15 11:18:27;;;;;;;;;;;18.80;40.40;;;;;;490793;240;1289;-53
2020/12/15 11:20:28;;;;;;;;;;;18.80;41.70;;;;;;490784;240;2133;-54
2020/12/15 11:22:29;;;;;;;;;;;18.70;41.70;;;;;;490546;240;1236;-53
2020/12/15 11:24:30;;;;;;;;;;;18.70;41.80;;;;;;490661;240;1205;-53
2020/12/15 11:26:32;;;;;;;;;;;18.70;41.80;;;;;;490802;240;1057;-53
2020/12/15 11:28:33;;;;;;;;;;;18.70;41.80;;;;;;490811;240;1229;-53
2020/12/15 11:30:34;;;;;;;;;;;18.60;40.50;;;;;;490704;240;1139;-54
2020/12/15 11:32:36;;;;;;;;;;;18.60;41.90;;;;;;491023;240;1213;-53
2020/12/15 11:34:37;;;;;;;;;;;18.60;41.90;;;;;;490797;240;1292;-53
2020/12/15 11:36:38;;;;;;;;;;;18.60;41.90;;;;;;490695;240;1284;-54
2020/12/15 11:38:43;;;;;;;;;;;18.50;40.60;;;;;;490662;240;1313;-54
2020/12/15 11:40:41;;;;;;;;;;;18.50;40.70;;;;;;490655;241;2191;-53
2020/12/15 11:42:42;;;;;;;;;;;18.50;42.00;;;;;;491008;240;1385;-53
2020/12/15 11:44:44;;;;;;;;;;;18.50;42.00;;;;;;490680;240;1170;-54
2020/12/15 11:46:45;;;;;;;;;;;18.50;42.00;;;;;;490691;240;1261;-53
2020/12/15 11:48:46;;;;;;;;;;;18.50;42.00;;;;;;490846;240;1265;-53
2020/12/15 11:50:47;;;;;;;;;;;18.50;42.10;;;;;;490792;240;1168;-54
2020/12/15 11:52:49;;;;;;;;;;;18.50;42.10;;;;;;490762;240;1198;-53
2020/12/15 11:54:50;;;;;;;;;;;18.40;42.10;;;;;;490744;240;1174;-53
2020/12/15 11:56:51;;;;;;;;;;;18.40;42.10;;;;;;490744;240;1069;-53
2020/12/15 11:58:53;;;;;;;;;;;18.40;42.20;;;;;;490805;240;1412;-53